Nearby METAR Reports

 

CYOW - Ottawa Intl, Ontario, Canada
Distance from station: N 33km
Updated: Tue, 22-Sep-2020 10:00am EDT
Few Clouds
Few Clouds
 Wind from NE
Wind: NE 6 km/h
Temperature: 11°C
Dew Point: 6°C
Humidity: 72%
Barometer: 30.26 inHg , 1024.7 hPa
Clouds: Few Clouds
Visibility: 24 km
Cloud details: Few Clouds 4572 m
2020/09/22 14:00 CYOW 221400Z 05003KT 020V120 15SM FEW150 11/06 A3026 RMK AC1 AC TR SLP250
CYGK - Kingston Arpt, Ontario, Canada
Distance from station: SW 117km
Updated: Tue, 22-Sep-2020 10:00am EDT
Few Clouds
Few Clouds
 Wind from ENE
Wind: ENE 6 km/h
Temperature: 13°C
Dew Point: 6°C
Humidity: 63%
Barometer: 30.26 inHg , 1024.7 hPa
Clouds: Few Clouds
Visibility: 24 km
Cloud details: Few Clouds 610 m
Few Clouds 7925 m
2020/09/22 14:00 CYGK 221400Z 07003KT 15SM FEW020 FEW260 13/06 A3026 RMK CU1CI2 CU TR SLP251
KMSS - Massena, New York, USA
Distance from station: E 62km
Updated: Tue, 22-Sep-2020 9:53am EDT
Clear
Clear
 Wind from calm
Wind: Calm
Temperature: 9°C
Dew Point: 5°C
Humidity: 76%
Barometer: 30.27 inHg , 1025.1 hPa
Clouds: Clear
Visibility: 16 km
2020/09/22 13:53 KMSS 221353Z AUTO 00000KT 10SM CLR 09/05 A3027 RMK AO2 SLP255 T00890050